Time;durP1;ratioP1;P1;durP2;ratioP2;P2;SDS_P1;SDS_P2;PMS_P1;PMS_P2;Temp;Humidity;BMP_temperature;BMP_pressure;BME280_temperature;BME280_humidity;BME280_pressure;Samples;Min_cycle;Max_cycle;Signal;HPM_P1;HPM_P2
2022/06/16 00:00:27;;;;;;;12.37;11.27;;;16.20;54.50;;;;;;637824;224;26529;-66
2022/06/16 00:02:54;;;;;;;12.13;10.90;;;16.20;54.50;;;;;;637627;224;26555;-66
2022/06/16 00:05:23;;;;;;;11.93;10.98;;;16.10;55.40;;;;;;637676;225;26577;-65
2022/06/16 00:07:51;;;;;;;11.27;10.38;;;16.00;55.40;;;;;;637499;225;26595;-65
2022/06/16 00:10:19;;;;;;;12.07;11.00;;;16.00;55.20;;;;;;637673;224;26579;-65
2022/06/16 00:12:47;;;;;;;11.40;10.50;;;15.90;55.30;;;;;;637664;225;26549;-65
2022/06/16 00:15:15;;;;;;;11.07;10.25;;;15.90;55.50;;;;;;637552;224;26599;-65
2022/06/16 00:17:42;;;;;;;10.82;9.93;;;15.90;55.50;;;;;;637483;225;26571;-66
2022/06/16 00:20:11;;;;;;;10.75;9.80;;;15.80;55.80;;;;;;637305;225;26779;-65
2022/06/16 00:22:37;;;;;;;9.93;8.93;;;15.80;55.60;;;;;;637664;225;26494;-65
2022/06/16 00:25:05;;;;;;;10.85;9.85;;;15.70;56.80;;;;;;637737;225;26739;-65
2022/06/16 00:27:32;;;;;;;10.65;9.75;;;15.70;56.30;;;;;;637708;226;26476;-65
2022/06/16 00:30:00;;;;;;;10.00;9.20;;;15.60;56.60;;;;;;637770;225;26484;-66
2022/06/16 00:32:27;;;;;;;9.50;8.75;;;15.50;56.50;;;;;;637708;225;26510;-65
2022/06/16 00:34:54;;;;;;;9.98;9.18;;;15.50;56.60;;;;;;637730;224;26488;-66
2022/06/16 00:37:22;;;;;;;10.27;9.38;;;15.40;57.20;;;;;;637710;225;26507;-66
2022/06/16 00:39:49;;;;;;;10.15;9.35;;;15.40;57.60;;;;;;637707;224;26524;-67
2022/06/16 00:42:16;;;;;;;19.15;9.35;;;15.40;57.90;;;;;;637738;224;26490;-66
2022/06/16 00:44:43;;;;;;;9.82;9.02;;;15.30;57.30;;;;;;637431;225;26499;-66
2022/06/16 00:47:11;;;;;;;8.95;8.25;;;15.30;58.00;;;;;;637260;225;26525;-66
2022/06/16 00:49:38;;;;;;;8.77;7.97;;;15.30;57.80;;;;;;637295;225;26558;-66
2022/06/16 00:52:06;;;;;;;8.85;8.10;;;15.30;58.10;;;;;;637139;225;26519;-67
2022/06/16 00:54:34;;;;;;;8.80;8.10;;;15.30;58.30;;;;;;637366;223;26748;-67
2022/06/16 00:57:03;;;;;;;8.55;7.82;;;15.30;58.80;;;;;;638918;224;26564;-67
2022/06/16 00:59:30;;;;;;;8.32;7.72;;;15.30;58.90;;;;;;638290;223;26523;-67
2022/06/16 01:01:57;;;;;;;8.10;7.50;;;15.30;59.20;;;;;;638275;224;26517;-66
2022/06/16 01:06:57;;;;;;;8.00;7.20;;;15.20;59.10;;;;;;637988;224;26531;-66
2022/06/16 01:09:25;;;;;;;7.85;7.32;;;15.10;59.70;;;;;;637845;223;26534;-66
2022/06/16 01:14:49;;;;;;;7.87;7.18;;;15.00;60.80;;;;;;629665;225;26616;-66
2022/06/16 01:17:22;;;;;;;7.55;7.05;;;15.00;60.70;;;;;;637192;225;26566;-66
2022/06/16 01:19:55;;;;;;;8.05;7.43;;;15.00;61.20;;;;;;636423;225;26582;-66
2022/06/16 01:22:27;;;;;;;7.72;7.12;;;15.00;62.00;;;;;;637140;225;26797;-66
2022/06/16 01:24:56;;;;;;;6.97;6.47;;;14.90;62.30;;;;;;635980;225;26589;-66
2022/06/16 01:27:36;;;;;;;6.80;6.35;;;14.80;63.20;;;;;;636864;225;26551;-66
2022/06/16 01:30:04;;;;;;;6.72;6.22;;;14.80;63.20;;;;;;637543;225;26799;-66
2022/06/16 01:32:48;;;;;;;7.35;6.65;;;14.80;63.70;;;;;;637292;225;26747;-66
2022/06/16 01:35:20;;;;;;;7.55;6.85;;;14.70;64.00;;;;;;637265;226;27507;-66
2022/06/16 01:37:56;;;;;;;6.87;6.37;;;14.70;65.40;;;;;;636506;223;26543;-67
2022/06/16 01:40:29;;;;;;;7.62;6.95;;;14.70;65.40;;;;;;636562;225;26496;-66
2022/06/16 01:43:04;;;;;;;6.57;6.07;;;14.60;65.40;;;;;;637032;225;26538;-67
2022/06/16 01:45:47;;;;;;;7.60;6.85;;;14.70;65.80;;;;;;637391;226;26479;-66
2022/06/16 01:48:15;;;;;;;6.45;6.03;;;14.70;65.90;;;;;;637139;223;26524;-66
2022/06/16 01:51:00;;;;;;;7.00;6.47;;;14.70;65.80;;;;;;639016;223;26758;-66
2022/06/16 01:53:27;;;;;;;6.75;6.15;;;14.60;65.90;;;;;;644891;220;26908;-67
2022/06/16 01:55:59;;;;;;;6.32;5.82;;;14.60;66.30;;;;;;640830;221;26571;-66
2022/06/16 01:58:26;;;;;;;6.53;5.93;;;14.60;66.60;;;;;;642997;221;26853;-67
2022/06/16 02:00:53;;;;;;;7.07;5.80;;;14.60;66.90;;;;;;639073;223;26562;-67
2022/06/16 02:03:24;;;;;;;5.80;5.40;;;14.70;67.00;;;;;;643637;221;26792;-67
2022/06/16 02:05:55;;;;;;;5.82;5.32;;;14.60;67.80;;;;;;645458;221;26541;-67
2022/06/16 02:08:23;;;;;;;6.35;5.85;;;14.60;67.20;;;;;;643110;218;26623;-67
2022/06/16 02:10:54;;;;;;;6.30;5.70;;;14.60;67.60;;;;;;641779;220;26516;-67
2022/06/16 02:13:21;;;;;;;5.87;5.47;;;14.50;68.30;;;;;;642372;221;26553;-67
2022/06/16 02:15:49;;;;;;;5.85;5.45;;;14.50;68.40;;;;;;643467;221;26783;-66
2022/06/16 02:18:16;;;;;;;5.57;5.18;;;14.50;68.70;;;;;;644069;221;26599;-67
2022/06/16 02:20:53;;;;;;;6.30;5.70;;;14.40;69.00;;;;;;641433;219;26760;-67
2022/06/16 02:23:21;;;;;;;5.82;5.43;;;14.40;69.80;;;;;;645765;221;26550;-68
2022/06/16 02:25:49;;;;;;;5.82;5.43;;;14.30;69.80;;;;;;640132;221;26514;-68
2022/06/16 02:28:17;;;;;;;5.50;5.10;;;14.30;69.80;;;;;;639561;221;26788;-68
2022/06/16 02:30:58;;;;;;;5.53;5.10;;;14.30;70.10;;;;;;637618;225;26777;-67
2022/06/16 02:33:26;;;;;;;5.15;4.85;;;14.30;70.60;;;;;;637626;225;26814;-67
2022/06/16 02:35:57;;;;;;;5.53;5.03;;;14.40;71.50;;;;;;636675;225;26608;-67
2022/06/16 02:38:29;;;;;;;5.45;5.00;;;14.40;70.70;;;;;;636970;225;26571;-67
2022/06/16 02:41:29;;;;;;;5.37;4.97;;;14.40;70.70;;;;;;636751;225;26815;-66
2022/06/16 02:44:03;;;;;;;5.03;4.72;;;14.40;71.00;;;;;;636494;221;26580;-66
2022/06/16 02:46:33;;;;;;;5.45;5.05;;;14.50;71.00;;;;;;641827;220;26822;-67
2022/06/16 02:49:05;;;;;;;5.35;4.93;;;14.50;70.90;;;;;;640131;221;26582;-66
2022/06/16 02:51:42;;;;;;;4.82;4.53;;;14.40;70.80;;;;;;639471;221;26732;-67
2022/06/16 02:54:28;;;;;;;5.03;4.53;;;14.40;71.10;;;;;;640410;221;26799;-67
2022/06/16 02:57:01;;;;;;;4.60;4.30;;;14.50;71.30;;;;;;639989;221;26740;-66
2022/06/16 02:59:30;;;;;;;6.32;4.72;;;14.40;71.40;;;;;;637120;225;26542;-66
2022/06/16 03:02:00;;;;;;;4.95;4.55;;;14.30;71.50;;;;;;636880;224;26541;-66
2022/06/16 03:04:31;;;;;;;4.45;4.15;;;14.20;71.80;;;;;;639109;221;26492;-66
2022/06/16 03:06:58;;;;;;;5.47;4.97;;;14.20;72.20;;;;;;641493;221;26832;-67
2022/06/16 03:09:25;;;;;;;4.45;4.05;;;14.20;72.40;;;;;;643922;221;26520;-67
2022/06/16 03:11:53;;;;;;;4.85;4.55;;;14.20;72.90;;;;;;643915;220;26755;-67
2022/06/16 03:14:20;;;;;;;5.35;4.62;;;14.20;72.90;;;;;;641897;221;26477;-67
2022/06/16 03:16:47;;;;;;;11.55;4.50;;;14.20;72.80;;;;;;641898;221;26783;-67
2022/06/16 03:19:17;;;;;;;4.95;4.55;;;14.30;72.80;;;;;;644109;220;26559;-66
2022/06/16 03:21:42;;;;;;;4.68;4.28;;;14.40;72.60;;;;;;640887;220;26877;-67
2022/06/16 03:24:09;;;;;;;4.30;3.90;;;14.30;72.50;;;;;;641418;221;27256;-66
2022/06/16 03:26:37;;;;;;;4.72;4.32;;;14.50;72.40;;;;;;641190;221;26573;-67
2022/06/16 03:29:04;;;;;;;6.95;4.20;;;14.50;72.30;;;;;;644040;221;26596;-66
2022/06/16 03:31:32;;;;;;;4.28;3.85;;;14.50;72.30;;;;;;643254;221;26760;-66
2022/06/16 03:34:00;;;;;;;4.80;4.03;;;14.50;72.20;;;;;;643597;221;26557;-65
2022/06/16 03:36:27;;;;;;;4.47;4.18;;;14.50;72.50;;;;;;642571;221;26749;-66
2022/06/16 03:38:55;;;;;;;4.40;4.00;;;14.50;72.70;;;;;;643765;221;27081;-66
2022/06/16 03:41:22;;;;;;;4.68;4.03;;;14.40;72.90;;;;;;645202;221;26554;-66
2022/06/16 03:43:51;;;;;;;7.72;4.05;;;14.40;73.00;;;;;;637543;225;26792;-66
2022/06/16 03:46:17;;;;;;;3.45;3.25;;;14.40;73.10;;;;;;638789;225;26548;-66
2022/06/16 03:48:45;;;;;;;4.15;3.75;;;14.40;73.40;;;;;;639068;222;26868;-66
2022/06/16 03:51:12;;;;;;;4.20;3.60;;;14.40;73.40;;;;;;638979;224;26558;-67
2022/06/16 03:53:39;;;;;;;4.07;3.78;;;14.50;73.60;;;;;;638307;224;26797;-67
2022/06/16 03:56:06;;;;;;;4.72;3.50;;;14.50;73.20;;;;;;638557;225;26543;-67
2022/06/16 03:58:34;;;;;;;4.62;3.83;;;14.60;73.00;;;;;;638472;220;26861;-67
2022/06/16 04:01:01;;;;;;;3.40;3.20;;;14.60;72.90;;;;;;644766;221;26580;-67
2022/06/16 04:06:01;;;;;;;3.95;3.60;;;14.70;72.20;;;;;;638484;225;26508;-68
2022/06/16 04:08:29;;;;;;;3.72;3.33;;;14.80;72.10;;;;;;648635;221;26814;-73
2022/06/16 04:10:56;;;;;;;3.78;3.47;;;14.80;71.70;;;;;;641864;221;26564;-71
2022/06/16 04:13:23;;;;;;;3.22;3.03;;;14.80;72.10;;;;;;644292;221;26788;-70
2022/06/16 04:15:50;;;;;;;3.47;3.17;;;14.70;72.20;;;;;;638973;221;26480;-70
2022/06/16 04:18:19;;;;;;;2.80;2.62;;;14.70;72.20;;;;;;641146;221;26573;-69
2022/06/16 04:20:46;;;;;;;2.72;2.55;;;14.70;72.20;;;;;;649511;221;26740;-70
2022/06/16 04:23:13;;;;;;;5.53;3.28;;;14.60;72.40;;;;;;643504;221;26529;-72
2022/06/16 04:25:40;;;;;;;5.25;3.25;;;14.50;73.00;;;;;;643614;221;26484;-70
2022/06/16 04:28:09;;;;;;;3.75;3.10;;;14.50;73.50;;;;;;644112;219;26564;-70
2022/06/16 04:30:36;;;;;;;3.20;3.00;;;14.50;73.50;;;;;;639466;221;26558;-70
2022/06/16 04:33:05;;;;;;;4.00;3.05;;;14.70;73.00;;;;;;639808;223;26486;-71
2022/06/16 04:35:33;;;;;;;2.67;2.50;;;14.70;73.40;;;;;;645158;221;26509;-70
2022/06/16 04:38:01;;;;;;;2.97;2.67;;;14.80;72.80;;;;;;642346;218;26606;-70
2022/06/16 04:40:28;;;;;;;3.05;2.85;;;15.10;71.90;;;;;;638919;224;26629;-70
2022/06/16 04:42:56;;;;;;;3.75;3.05;;;15.20;71.30;;;;;;637923;225;26526;-70
2022/06/16 04:45:24;;;;;;;2.90;2.70;;;15.10;71.20;;;;;;643973;221;26559;-71
2022/06/16 04:47:51;;;;;;;2.83;2.40;;;15.30;71.00;;;;;;642744;221;26594;-70
2022/06/16 04:50:19;;;;;;;2.95;2.75;;;15.40;70.40;;;;;;638711;224;26569;-70
2022/06/16 04:52:47;;;;;;;3.30;2.95;;;15.40;70.40;;;;;;637719;223;26594;-70
2022/06/16 04:55:14;;;;;;;3.47;2.90;;;15.30;71.10;;;;;;642846;221;26552;-70
2022/06/16 04:57:41;;;;;;;2.50;2.37;;;15.40;70.00;;;;;;651079;221;26742;-70
2022/06/16 05:00:09;;;;;;;2.80;2.60;;;15.50;69.60;;;;;;648109;221;26737;-70
2022/06/16 05:02:36;;;;;;;2.67;2.45;;;15.40;69.20;;;;;;640634;221;26519;-70
2022/06/16 05:05:03;;;;;;;3.03;2.80;;;15.50;69.50;;;;;;644260;222;26808;-69
2022/06/16 05:07:30;;;;;;;2.58;2.47;;;15.60;69.60;;;;;;638419;223;26516;-69
2022/06/16 05:09:58;;;;;;;3.90;2.80;;;15.80;69.00;;;;;;638484;225;26495;-70
2022/06/16 05:12:25;;;;;;;2.80;2.60;;;15.90;68.00;;;;;;639092;221;26780;-69
2022/06/16 05:14:52;;;;;;;2.62;2.42;;;16.00;68.00;;;;;;647671;221;26737;-70
2022/06/16 05:17:20;;;;;;;2.65;2.45;;;16.10;66.90;;;;;;637955;225;26576;-69
2022/06/16 05:19:47;;;;;;;2.53;2.00;;;16.30;66.70;;;;;;638696;221;26825;-69
2022/06/16 05:22:14;;;;;;;2.00;1.90;;;16.60;66.70;;;;;;648227;221;26780;-70
2022/06/16 05:24:41;;;;;;;3.05;2.60;;;16.70;65.40;;;;;;640601;221;26738;-70
2022/06/16 05:27:08;;;;;;;2.05;1.95;;;17.00;64.90;;;;;;646695;221;26828;-70
2022/06/16 05:29:35;;;;;;;2.37;2.28;;;17.10;63.50;;;;;;642675;223;26794;-70
2022/06/16 05:32:03;;;;;;;2.60;2.22;;;17.20;63.50;;;;;;639831;222;26806;-70
2022/06/16 05:34:30;;;;;;;1.83;1.73;;;17.20;63.90;;;;;;642439;223;26575;-69
2022/06/16 05:36:57;;;;;;;3.47;2.25;;;17.30;63.30;;;;;;637788;224;26858;-71
2022/06/16 05:39:24;;;;;;;2.15;2.05;;;17.50;62.30;;;;;;638666;221;26624;-69
2022/06/16 05:41:52;;;;;;;2.40;2.08;;;17.70;61.00;;;;;;639724;223;26795;-68
2022/06/16 05:44:19;;;;;;;1.92;1.83;;;17.70;60.50;;;;;;646232;220;26515;-68
2022/06/16 05:46:46;;;;;;;2.00;1.90;;;17.90;59.80;;;;;;651845;220;26754;-69
2022/06/16 05:49:13;;;;;;;1.95;1.80;;;17.90;60.00;;;;;;646608;221;26609;-69
2022/06/16 05:51:40;;;;;;;2.50;2.30;;;17.90;60.20;;;;;;638645;225;26869;-68
2022/06/16 05:54:08;;;;;;;3.95;2.25;;;17.80;59.60;;;;;;648365;221;26551;-69
2022/06/16 05:56:36;;;;;;;4.85;2.00;;;17.80;59.70;;;;;;638724;221;26506;-70
2022/06/16 05:59:03;;;;;;;2.12;1.95;;;17.70;60.00;;;;;;638261;225;26787;-69
2022/06/16 06:01:31;;;;;;;1.98;1.65;;;17.70;60.20;;;;;;640373;221;26554;-70
2022/06/16 06:03:59;;;;;;;2.22;2.08;;;17.90;59.80;;;;;;646830;221;26528;-70
2022/06/16 06:06:27;;;;;;;2.25;1.90;;;18.20;59.40;;;;;;639263;221;26554;-69
2022/06/16 06:16:50;;;;;;;2.28;2.17;;;18.40;58.90;;;;;;649777;218;26734;-69
2022/06/16 06:21:58;;;;;;;2.15;2.05;;;19.10;57.90;;;;;;638798;225;26782;-69
2022/06/16 06:24:26;;;;;;;2.87;1.98;;;19.40;57.70;;;;;;649306;221;26535;-69
2022/06/16 06:26:53;;;;;;;2.37;2.05;;;19.40;57.30;;;;;;650797;221;26901;-69
2022/06/16 06:29:20;;;;;;;2.33;2.12;;;20.00;56.40;;;;;;645026;221;26587;-69
2022/06/16 06:31:47;;;;;;;1.60;1.50;;;20.30;56.00;;;;;;645659;219;26782;-69
2022/06/16 06:34:15;;;;;;;2.20;2.00;;;20.30;55.10;;;;;;640026;221;26582;-70
2022/06/16 06:36:42;;;;;;;3.05;1.98;;;20.30;55.40;;;;;;639501;221;26758;-70
2022/06/16 06:39:09;;;;;;;2.40;2.20;;;20.30;55.00;;;;;;645995;218;26604;-68
2022/06/16 06:41:36;;;;;;;2.08;1.90;;;20.20;54.80;;;;;;644488;221;26552;-68
2022/06/16 06:44:04;;;;;;;2.37;1.85;;;19.90;55.20;;;;;;641762;221;26569;-69
2022/06/16 06:46:33;;;;;;;2.15;2.05;;;19.90;55.20;;;;;;638785;225;26783;-68
2022/06/16 06:49:00;;;;;;;1.90;1.80;;;19.70;55.50;;;;;;638467;225;26765;-68
2022/06/16 06:51:27;;;;;;;2.17;1.70;;;19.80;55.70;;;;;;638646;224;26785;-68
2022/06/16 06:53:54;;;;;;;3.08;2.10;;;19.70;55.90;;;;;;648110;218;26567;-68
2022/06/16 06:56:21;;;;;;;2.17;1.98;;;19.70;55.60;;;;;;651878;220;26838;-69
2022/06/16 06:58:49;;;;;;;1.73;1.62;;;19.90;55.30;;;;;;639736;223;26610;-69
2022/06/16 07:01:16;;;;;;;1.65;1.55;;;20.20;55.50;;;;;;638923;221;26785;-69
2022/06/16 07:03:43;;;;;;;3.42;1.75;;;20.50;54.90;;;;;;645795;221;26552;-69
2022/06/16 07:06:10;;;;;;;3.10;2.05;;;21.00;53.80;;;;;;641006;221;26795;-69
2022/06/16 07:08:37;;;;;;;1.65;1.55;;;21.30;53.30;;;;;;638267;221;26590;-69
2022/06/16 07:11:05;;;;;;;2.17;1.73;;;21.30;53.00;;;;;;642919;221;26557;-69
2022/06/16 07:13:33;;;;;;;1.90;1.70;;;21.60;52.60;;;;;;643477;221;26578;-70
2022/06/16 07:16:01;;;;;;;2.00;1.73;;;21.90;52.10;;;;;;638632;225;26510;-70
2022/06/16 07:18:28;;;;;;;2.30;1.98;;;22.00;51.70;;;;;;638826;222;26599;-70
2022/06/16 07:20:56;;;;;;;1.80;1.70;;;22.00;51.60;;;;;;639169;224;26546;-70
2022/06/16 07:23:23;;;;;;;3.00;1.90;;;22.20;51.20;;;;;;638354;224;26770;-69
2022/06/16 07:25:50;;;;;;;2.03;1.85;;;22.20;51.10;;;;;;638711;224;26926;-70
2022/06/16 07:28:17;;;;;;;2.62;1.80;;;21.90;51.10;;;;;;649000;221;26539;-69
2022/06/16 07:30:44;;;;;;;1.75;1.65;;;21.40;51.60;;;;;;650817;221;26801;-69
2022/06/16 07:33:12;;;;;;;2.28;2.03;;;21.30;52.00;;;;;;650792;221;26549;-69
2022/06/16 07:35:41;;;;;;;2.05;1.90;;;21.20;51.80;;;;;;643176;221;26869;-70
2022/06/16 07:38:06;;;;;;;4.28;1.62;;;21.30;51.90;;;;;;638033;225;26563;-70
2022/06/16 07:40:33;;;;;;;1.87;1.77;;;21.20;51.80;;;;;;649786;221;26774;-69
2022/06/16 07:43:00;;;;;;;2.22;2.08;;;21.40;51.80;;;;;;646803;221;26562;-70
2022/06/16 07:45:28;;;;;;;1.92;1.83;;;21.70;51.30;;;;;;643600;221;26893;-71
2022/06/16 07:47:55;;;;;;;2.05;1.85;;;21.60;51.20;;;;;;642488;221;26611;-70
2022/06/16 07:50:22;;;;;;;1.65;1.55;;;21.40;51.50;;;;;;649323;221;26728;-70
2022/06/16 07:52:49;;;;;;;1.52;1.42;;;21.40;51.30;;;;;;648582;221;26485;-69
2022/06/16 07:55:18;;;;;;;1.85;1.35;;;21.30;51.80;;;;;;638240;224;26552;-69
2022/06/16 07:57:45;;;;;;;2.00;1.80;;;21.80;51.20;;;;;;637633;225;26499;-70
2022/06/16 08:00:14;;;;;;;5.32;1.48;;;21.90;50.60;;;;;;637753;221;26492;-71
2022/06/16 08:02:41;;;;;;;6.85;2.08;;;21.90;50.60;;;;;;638805;224;26960;-70
2022/06/16 08:05:10;;;;;;;4.97;2.00;;;21.90;50.70;;;;;;640038;223;26531;-68
2022/06/16 08:07:36;;;;;;;26.62;5.28;;;21.80;50.50;;;;;;639712;224;26723;-68
2022/06/16 08:10:04;;;;;;;31.83;9.00;;;21.40;50.80;;;;;;638389;225;26556;-69
2022/06/16 08:12:31;;;;;;;152.48;31.83;;;21.30;51.20;;;;;;638210;225;26576;-69
2022/06/16 08:14:58;;;;;;;139.23;29.63;;;21.50;51.10;;;;;;637978;224;26859;-69
2022/06/16 08:17:26;;;;;;;52.03;12.13;;;21.70;51.50;;;;;;637924;224;26510;-66
2022/06/16 08:19:54;;;;;;;122.30;28.50;;;21.90;50.70;;;;;;651596;220;26618;-67
2022/06/16 08:22:22;;;;;;;110.50;24.67;;;21.80;50.40;;;;;;651893;220;26563;-66
2022/06/16 08:24:49;;;;;;;101.78;22.55;;;21.80;50.40;;;;;;651689;221;26570;-66
2022/06/16 08:27:16;;;;;;;58.13;15.80;;;21.90;50.80;;;;;;651653;221;26798;-66
2022/06/16 08:29:43;;;;;;;15.05;4.45;;;22.00;50.70;;;;;;651559;221;26575;-66
2022/06/16 08:32:12;;;;;;;63.08;15.77;;;22.00;50.40;;;;;;651631;221;26506;-66
2022/06/16 08:34:40;;;;;;;10.30;3.95;;;22.20;50.70;;;;;;651704;221;26575;-66
2022/06/16 08:37:08;;;;;;;37.13;9.30;;;22.40;50.40;;;;;;651878;220;26549;-66
2022/06/16 08:39:36;;;;;;;25.30;6.62;;;22.50;50.20;;;;;;651865;218;26592;-66
2022/06/16 08:42:09;;;;;;;5.00;2.58;;;22.40;49.70;;;;;;651571;221;26520;-66
2022/06/16 08:44:38;;;;;;;32.88;9.43;;;22.40;49.70;;;;;;651609;221;26507;-66
2022/06/16 08:47:08;;;;;;;28.73;8.15;;;22.30;49.90;;;;;;646597;221;26577;-66
2022/06/16 08:49:51;;;;;;;20.27;5.62;;;22.20;49.40;;;;;;636611;223;26555;-67
2022/06/16 08:52:28;;;;;;;4.05;2.40;;;22.20;49.40;;;;;;638265;221;26551;-67
2022/06/16 08:54:59;;;;;;;9.55;3.05;;;22.50;48.80;;;;;;638387;224;26572;-66
2022/06/16 08:57:29;;;;;;;5.35;2.80;;;22.70;49.10;;;;;;638262;224;26745;-64
2022/06/16 08:59:57;;;;;;;4.87;2.20;;;22.90;48.30;;;;;;638218;224;26579;-66
2022/06/16 09:02:26;;;;;;;9.40;3.05;;;23.20;48.10;;;;;;637852;221;26517;-66
2022/06/16 09:04:58;;;;;;;6.53;2.80;;;23.20;48.10;;;;;;637994;224;26541;-66
2022/06/16 09:07:33;;;;;;;10.23;3.00;;;23.70;48.10;;;;;;638354;224;26544;-66
2022/06/16 09:10:16;;;;;;;6.68;2.55;;;23.70;48.10;;;;;;637918;224;27112;-65
2022/06/16 09:13:09;;;;;;;5.45;2.78;;;23.50;47.00;;;;;;638177;223;26839;-66
2022/06/16 09:15:39;;;;;;;6.30;2.30;;;23.50;47.10;;;;;;630193;223;26590;-65
2022/06/16 09:18:14;;;;;;;5.85;2.60;;;23.50;47.10;;;;;;639636;223;26757;-65
2022/06/16 09:20:45;;;;;;;7.85;2.47;;;23.90;46.70;;;;;;639016;224;27029;-66
2022/06/16 09:23:19;;;;;;;4.18;2.50;;;24.20;46.30;;;;;;639413;224;26509;-67
2022/06/16 09:26:03;;;;;;;5.07;2.42;;;24.40;45.90;;;;;;638429;224;26547;-67
2022/06/16 09:28:32;;;;;;;3.37;2.10;;;24.40;46.00;;;;;;637587;223;26617;-66
2022/06/16 09:30:58;;;;;;;6.50;2.20;;;24.50;46.90;;;;;;640801;221;26560;-66
2022/06/16 09:33:26;;;;;;;2.40;1.92;;;24.70;45.40;;;;;;651093;221;26738;-66
2022/06/16 09:35:53;;;;;;;3.28;2.20;;;24.30;45.20;;;;;;650770;221;26516;-66
2022/06/16 09:38:22;;;;;;;5.75;2.15;;;24.50;45.40;;;;;;650758;221;26526;-66
2022/06/16 09:40:50;;;;;;;3.87;2.12;;;24.50;45.80;;;;;;650436;221;26503;-66
2022/06/16 09:43:33;;;;;;;5.18;2.60;;;24.20;45.70;;;;;;650798;221;26677;-66
2022/06/16 09:46:04;;;;;;;3.97;1.95;;;24.40;45.60;;;;;;650899;221;26795;-66
2022/06/16 09:48:33;;;;;;;4.40;2.00;;;24.40;44.60;;;;;;650428;221;26509;-66
2022/06/16 09:51:01;;;;;;;4.87;1.87;;;24.40;45.10;;;;;;650765;221;26768;-66
2022/06/16 09:53:33;;;;;;;2.70;1.95;;;24.30;45.70;;;;;;650303;221;26560;-66
2022/06/16 09:56:04;;;;;;;3.67;1.98;;;24.50;45.70;;;;;;650123;220;26589;-66
2022/06/16 09:58:49;;;;;;;6.28;2.08;;;24.30;45.70;;;;;;650518;220;26607;-65
2022/06/16 10:01:16;;;;;;;2.30;1.85;;;24.30;45.30;;;;;;650709;221;26805;-66
2022/06/16 10:04:04;;;;;;;2.10;1.90;;;24.20;45.40;;;;;;650554;221;26581;-66
2022/06/16 10:07:01;;;;;;;2.80;2.12;;;24.40;45.10;;;;;;650795;221;26742;-66
2022/06/16 10:09:44;;;;;;;1.98;1.80;;;24.60;44.70;;;;;;646838;221;26799;-71
2022/06/16 10:12:33;;;;;;;1.60;1.50;;;25.30;43.70;;;;;;650471;221;26519;-67
2022/06/16 10:15:09;;;;;;;4.00;1.60;;;25.20;43.70;;;;;;650658;221;26848;-70
2022/06/16 10:17:36;;;;;;;3.80;1.92;;;25.90;43.30;;;;;;650472;221;27116;-70
2022/06/16 10:20:04;;;;;;;2.20;2.00;;;26.30;42.20;;;;;;650779;219;26522;-69
2022/06/16 10:22:31;;;;;;;5.07;1.70;;;26.10;42.40;;;;;;650856;221;26564;-69
2022/06/16 10:24:59;;;;;;;4.87;1.98;;;26.30;41.70;;;;;;650698;221;26732;-69
2022/06/16 10:27:28;;;;;;;5.32;2.28;;;26.10;42.30;;;;;;650915;219;26556;-70
2022/06/16 10:29:56;;;;;;;5.00;2.30;;;26.40;41.60;;;;;;651754;220;26586;-68
2022/06/16 10:32:39;;;;;;;3.00;2.33;;;26.40;41.60;;;;;;651842;220;26734;-70
2022/06/16 10:35:07;;;;;;;3.42;1.87;;;26.40;41.40;;;;;;651716;219;26470;-69
2022/06/16 10:37:34;;;;;;;3.35;1.90;;;26.20;41.60;;;;;;651508;221;26505;-69
2022/06/16 10:40:01;;;;;;;6.45;2.12;;;26.20;41.40;;;;;;651175;221;26989;-70
2022/06/16 10:42:28;;;;;;;4.35;1.85;;;25.50;41.80;;;;;;651413;219;26535;-70
2022/06/16 10:44:58;;;;;;;3.00;1.73;;;25.20;42.20;;;;;;651399;221;26770;-69
2022/06/16 10:47:35;;;;;;;4.47;2.30;;;25.30;42.30;;;;;;650529;221;26905;-70
2022/06/16 10:50:03;;;;;;;6.97;2.78;;;25.60;41.90;;;;;;650779;221;26886;-70
2022/06/16 10:52:31;;;;;;;5.87;2.72;;;25.60;42.00;;;;;;651007;221;26504;-69
2022/06/16 10:54:59;;;;;;;4.07;2.10;;;25.30;42.10;;;;;;650971;221;26492;-69
2022/06/16 10:57:26;;;;;;;4.30;2.92;;;25.40;42.10;;;;;;651041;220;26503;-69
2022/06/16 11:00:07;;;;;;;5.75;3.17;;;25.30;42.50;;;;;;646179;219;26553;-70
2022/06/16 11:02:35;;;;;;;6.28;3.00;;;25.30;42.50;;;;;;642284;221;26523;-70
2022/06/16 11:05:05;;;;;;;5.75;3.33;;;25.60;41.90;;;;;;644346;221;26567;-70
2022/06/16 11:07:35;;;;;;;6.32;3.08;;;25.70;41.90;;;;;;640757;221;26556;-70
2022/06/16 11:10:04;;;;;;;6.43;3.20;;;26.00;42.50;;;;;;638633;224;26551;-69
2022/06/16 11:12:31;;;;;;;20.67;4.80;;;26.00;41.80;;;;;;637775;225;26519;-69
2022/06/16 11:15:00;;;;;;;13.50;3.33;;;25.90;41.70;;;;;;644658;221;27149;-69
2022/06/16 11:17:28;;;;;;;9.43;3.62;;;25.60;42.10;;;;;;641552;221;26503;-69
2022/06/16 11:20:06;;;;;;;5.05;3.05;;;25.30;42.70;;;;;;637058;225;26520;-70
2022/06/16 11:22:40;;;;;;;5.70;3.58;;;25.10;42.70;;;;;;637338;226;26745;-69
2022/06/16 11:25:07;;;;;;;8.82;3.58;;;24.90;43.00;;;;;;637368;225;26761;-69
2022/06/16 11:27:37;;;;;;;6.90;3.70;;;24.90;43.10;;;;;;635691;225;26508;-69
2022/06/16 11:30:04;;;;;;;7.75;2.95;;;24.70;43.40;;;;;;637194;224;26768;-69
2022/06/16 11:32:32;;;;;;;8.07;3.03;;;24.60;43.80;;;;;;633767;226;26571;-69
2022/06/16 11:34:58;;;;;;;10.45;2.97;;;24.20;44.00;;;;;;636848;225;26836;-69
2022/06/16 11:37:33;;;;;;;9.63;2.80;;;24.20;44.30;;;;;;637321;224;26505;-69
2022/06/16 11:40:22;;;;;;;3.97;2.80;;;24.20;43.80;;;;;;638475;223;26537;-69
2022/06/16 11:43:15;;;;;;;4.10;2.70;;;24.20;43.80;;;;;;637647;225;26535;-69
2022/06/16 11:45:54;;;;;;;7.72;2.62;;;23.90;43.90;;;;;;638034;225;27239;-68
2022/06/16 11:48:22;;;;;;;3.75;2.50;;;23.70;44.50;;;;;;638534;224;26588;-68
2022/06/16 11:50:54;;;;;;;3.55;2.40;;;23.70;44.40;;;;;;637390;224;26507;-68
2022/06/16 11:53:27;;;;;;;5.95;2.67;;;23.50;43.40;;;;;;637811;224;26518;-70
2022/06/16 11:55:57;;;;;;;4.50;2.40;;;23.50;43.40;;;;;;637265;224;26506;-69
2022/06/16 11:58:40;;;;;;;1.98;1.70;;;23.50;43.60;;;;;;637474;224;26556;-69
2022/06/16 12:01:14;;;;;;;5.25;2.35;;;23.60;43.40;;;;;;637160;225;26570;-69
2022/06/16 12:03:53;;;;;;;4.80;3.12;;;23.60;43.40;;;;;;637545;223;26769;-70
2022/06/16 12:06:28;;;;;;;4.43;2.53;;;23.60;43.50;;;;;;636959;225;26556;-69
2022/06/16 12:09:01;;;;;;;3.87;2.33;;;23.70;43.30;;;;;;636705;225;26576;-69
2022/06/16 12:11:34;;;;;;;2.45;2.20;;;23.70;43.20;;;;;;637089;225;26593;-69
2022/06/16 12:14:18;;;;;;;2.90;2.20;;;23.90;43.20;;;;;;640616;221;26747;-69
2022/06/16 12:16:52;;;;;;;2.33;2.00;;;24.40;44.00;;;;;;641701;221;26561;-70
2022/06/16 12:19:23;;;;;;;6.28;2.58;;;24.40;43.60;;;;;;639131;221;26526;-69
2022/06/16 12:21:51;;;;;;;2.95;2.45;;;24.50;43.10;;;;;;638920;221;26521;-68
2022/06/16 12:24:47;;;;;;;5.15;2.25;;;24.30;43.00;;;;;;639786;221;26582;-69
2022/06/16 12:27:15;;;;;;;2.17;1.98;;;24.70;43.40;;;;;;642471;220;26569;-69
2022/06/16 12:29:44;;;;;;;3.95;2.08;;;25.40;42.10;;;;;;639416;223;26535;-70
2022/06/16 12:32:18;;;;;;;2.78;2.05;;;25.40;42.00;;;;;;640644;221;26771;-70
2022/06/16 12:34:51;;;;;;;3.10;1.90;;;25.90;41.50;;;;;;641182;221;26752;-70
2022/06/16 12:37:19;;;;;;;4.20;2.20;;;26.40;40.70;;;;;;644876;221;26781;-68
2022/06/16 12:39:53;;;;;;;2.45;1.85;;;26.50;40.20;;;;;;639780;221;26685;-70
2022/06/16 12:42:20;;;;;;;3.33;2.12;;;26.10;40.60;;;;;;644925;220;26568;-73
2022/06/16 12:44:49;;;;;;;4.40;2.33;;;26.90;40.00;;;;;;642353;221;26508;-69
2022/06/16 12:47:19;;;;;;;5.18;2.20;;;26.90;40.00;;;;;;647499;220;26776;-70
2022/06/16 12:49:51;;;;;;;3.17;1.90;;;27.10;39.70;;;;;;639139;221;26772;-70
2022/06/16 12:52:22;;;;;;;4.75;2.30;;;27.50;38.60;;;;;;643279;220;26564;-70
2022/06/16 12:54:54;;;;;;;6.62;2.30;;;27.50;38.70;;;;;;646473;220;26797;-74
2022/06/16 12:57:22;;;;;;;3.50;2.05;;;27.80;38.60;;;;;;647417;221;26580;-71
2022/06/16 12:59:55;;;;;;;3.92;2.40;;;28.90;37.70;;;;;;651376;221;26543;-69
2022/06/16 13:02:23;;;;;;;2.25;2.00;;;28.90;37.70;;;;;;647892;219;26559;-67
2022/06/16 13:04:50;;;;;;;2.90;2.00;;;29.30;37.00;;;;;;644504;221;26559;-70
2022/06/16 13:07:18;;;;;;;2.20;1.92;;;29.20;36.80;;;;;;642813;221;26525;-71
2022/06/16 13:09:46;;;;;;;3.00;1.85;;;30.30;36.50;;;;;;638842;221;26533;-68
2022/06/16 13:12:14;;;;;;;2.65;1.98;;;30.30;36.40;;;;;;646066;221;26581;-68
2022/06/16 13:14:42;;;;;;;3.65;2.25;;;31.10;34.30;;;;;;645752;221;26516;-71
2022/06/16 13:17:09;;;;;;;3.92;2.20;;;31.30;34.20;;;;;;650016;221;26758;-73